Time;durP1;ratioP1;P1;durP2;ratioP2;P2;SDS_P1;SDS_P2;PMS_P1;PMS_P2;Temp;Humidity;BMP_temperature;BMP_pressure;BME280_temperature;BME280_humidity;BME280_pressure;Samples;Min_cycle;Max_cycle;Signal;HPM_P1;HPM_P2
2022/04/30 00:02:08;;;;;;;7.90;6.37;;;6.80;99.90;;;;;;4990552;28;20212;-84
2022/04/30 00:04:35;;;;;;;9.97;6.40;;;6.70;99.90;;;;;;4989967;28;20704;-80
2022/04/30 00:07:02;;;;;;;7.93;5.93;;;6.70;99.90;;;;;;4991241;28;20224;-82
2022/04/30 00:09:29;;;;;;;8.30;5.93;;;6.70;99.90;;;;;;4993141;28;20208;-85
2022/04/30 00:11:56;;;;;;;7.80;5.67;;;6.70;99.90;;;;;;4992646;28;20203;-85
2022/04/30 00:14:25;;;;;;;10.37;6.47;;;6.60;99.90;;;;;;4990640;28;20204;-86
2022/04/30 00:16:53;;;;;;;9.20;6.33;;;6.60;99.90;;;;;;4991535;28;20239;-84
2022/04/30 00:19:20;;;;;;;9.17;6.27;;;6.60;99.90;;;;;;4993333;28;20271;-83
2022/04/30 00:21:47;;;;;;;9.10;5.53;;;6.60;99.90;;;;;;5003399;28;20269;-83
2022/04/30 00:24:14;;;;;;;7.97;5.60;;;6.50;99.90;;;;;;5013399;28;20199;-86
2022/04/30 00:26:41;;;;;;;8.17;6.40;;;6.50;99.90;;;;;;5012217;28;20218;-84
2022/04/30 00:29:08;;;;;;;5.73;5.13;;;6.50;99.90;;;;;;5006950;28;20316;-86
2022/04/30 00:31:36;;;;;;;6.27;5.40;;;6.60;99.90;;;;;;4992189;28;20561;-85
2022/04/30 00:34:04;;;;;;;7.27;5.30;;;6.70;99.90;;;;;;4993590;28;20202;-87
2022/04/30 00:36:31;;;;;;;8.30;5.50;;;6.70;99.90;;;;;;5001718;28;20968;-84
2022/04/30 00:38:58;;;;;;;6.17;5.13;;;6.60;99.90;;;;;;5013048;28;20203;-87
2022/04/30 00:41:25;;;;;;;7.60;5.20;;;6.60;99.90;;;;;;5013164;28;20218;-82
2022/04/30 00:43:53;;;;;;;7.83;5.87;;;6.60;99.90;;;;;;4998904;28;20292;-86
2022/04/30 00:46:22;;;;;;;7.23;5.30;;;6.60;99.90;;;;;;4992334;28;20224;-86
2022/04/30 00:48:50;;;;;;;7.97;5.60;;;6.60;99.90;;;;;;4993556;28;20259;-87
2022/04/30 00:51:19;;;;;;;7.43;4.73;;;6.60;99.90;;;;;;4991557;28;20215;-87
2022/04/30 00:53:47;;;;;;;6.80;5.67;;;6.60;99.90;;;;;;5000439;28;20211;-83
2022/04/30 00:56:16;;;;;;;9.07;6.47;;;6.70;99.90;;;;;;5012482;28;20203;-88
2022/04/30 00:58:46;;;;;;;9.17;5.73;;;6.70;99.90;;;;;;5005262;28;20258;-85
2022/04/30 01:01:13;;;;;;;7.77;6.30;;;6.70;99.90;;;;;;4990480;28;20204;-83
2022/04/30 01:03:40;;;;;;;8.27;6.07;;;6.80;99.90;;;;;;4992022;28;20220;-84
2022/04/30 01:06:08;;;;;;;6.97;6.27;;;6.90;99.90;;;;;;4992183;28;20227;-85
2022/04/30 01:08:37;;;;;;;7.33;5.70;;;7.00;99.90;;;;;;4993964;28;20232;-85
2022/04/30 01:11:05;;;;;;;8.10;5.97;;;7.00;99.90;;;;;;4992207;28;20511;-84
2022/04/30 01:13:34;;;;;;;6.97;5.67;;;7.20;99.90;;;;;;4992574;28;20193;-86
2022/04/30 01:16:03;;;;;;;9.80;5.97;;;7.30;99.90;;;;;;4991986;28;20210;-84
2022/04/30 01:18:30;;;;;;;12.53;5.93;;;7.40;99.90;;;;;;4992248;28;20209;-84
2022/04/30 01:21:03;;;;;;;6.20;5.43;;;7.50;99.90;;;;;;4992098;28;20210;-84
2022/04/30 01:23:33;;;;;;;7.47;5.77;;;7.60;99.90;;;;;;4990724;28;20259;-86
2022/04/30 01:26:01;;;;;;;9.20;5.60;;;7.60;99.90;;;;;;4990550;28;20232;-84
2022/04/30 01:28:29;;;;;;;7.30;5.03;;;7.60;99.90;;;;;;4991606;28;20211;-88
2022/04/30 01:30:56;;;;;;;7.20;5.73;;;7.60;99.90;;;;;;4992657;28;20202;-82
2022/04/30 01:38:58;;;;;;;6.80;5.57;;;7.80;99.90;;;;;;5011619;28;20223;-85
2022/04/30 01:41:25;;;;;;;7.10;5.40;;;7.80;99.90;;;;;;4995402;28;20208;-87
2022/04/30 01:43:52;;;;;;;6.63;6.03;;;7.90;99.90;;;;;;4993599;28;20218;-87
2022/04/30 01:46:19;;;;;;;8.67;5.53;;;7.90;99.90;;;;;;4993573;28;20236;-87
2022/04/30 01:48:46;;;;;;;8.40;5.73;;;8.00;99.90;;;;;;4992933;28;20428;-83
2022/04/30 01:51:13;;;;;;;6.43;4.97;;;8.10;99.90;;;;;;4992957;28;20215;-84
2022/04/30 01:53:41;;;;;;;8.80;5.70;;;8.10;99.90;;;;;;4992900;28;20287;-88
2022/04/30 01:56:09;;;;;;;9.67;5.17;;;8.10;99.90;;;;;;4992531;28;20203;-86
2022/04/30 01:58:36;;;;;;;11.10;6.27;;;8.20;99.90;;;;;;5002439;28;20219;-85
2022/04/30 02:01:07;;;;;;;5.90;4.80;;;8.20;99.90;;;;;;5011242;28;20549;-84
2022/04/30 02:03:35;;;;;;;10.37;5.20;;;8.30;99.90;;;;;;5011994;28;20222;-85
2022/04/30 02:06:02;;;;;;;5.13;4.40;;;8.30;99.90;;;;;;5004790;28;20567;-86
2022/04/30 02:08:32;;;;;;;7.70;5.03;;;8.40;99.90;;;;;;4992192;28;20207;-84
2022/04/30 02:10:59;;;;;;;10.10;5.17;;;8.40;99.90;;;;;;4991919;28;20290;-85
2022/04/30 02:13:29;;;;;;;7.43;5.63;;;8.40;99.90;;;;;;4998539;28;20211;-85
2022/04/30 02:15:57;;;;;;;8.87;5.40;;;8.50;99.90;;;;;;5012006;28;20212;-88
2022/04/30 02:18:26;;;;;;;5.43;4.90;;;8.50;99.90;;;;;;5010008;28;20234;-84
2022/04/30 02:20:54;;;;;;;6.10;4.43;;;8.50;99.90;;;;;;4991974;28;20200;-84
2022/04/30 02:23:22;;;;;;;6.67;4.80;;;8.50;99.90;;;;;;4990637;28;20211;-85
2022/04/30 02:25:50;;;;;;;11.13;5.67;;;8.50;99.90;;;;;;4991297;28;20215;-88
2022/04/30 02:28:17;;;;;;;12.57;6.70;;;8.50;99.90;;;;;;4990499;28;20595;-88
2022/04/30 02:30:47;;;;;;;7.50;5.53;;;8.50;99.90;;;;;;4990304;28;20204;-86
2022/04/30 02:33:15;;;;;;;8.73;5.63;;;8.50;99.90;;;;;;4988435;28;20651;-86
2022/04/30 02:35:44;;;;;;;10.47;5.77;;;8.50;99.90;;;;;;4988819;28;20216;-84
2022/04/30 02:38:11;;;;;;;7.30;5.10;;;8.40;99.90;;;;;;4997910;28;20214;-85
2022/04/30 02:40:40;;;;;;;10.00;5.13;;;8.40;99.90;;;;;;5009104;28;20209;-82
2022/04/30 02:43:08;;;;;;;7.33;5.33;;;8.40;99.90;;;;;;5008537;28;20214;-86
2022/04/30 02:45:36;;;;;;;7.13;4.80;;;8.50;99.90;;;;;;4998793;28;20269;-87
2022/04/30 02:48:07;;;;;;;6.47;5.20;;;8.50;99.90;;;;;;4989062;28;20223;-84
2022/04/30 02:50:35;;;;;;;5.47;4.53;;;8.50;99.90;;;;;;4989305;28;20208;-84
2022/04/30 02:53:02;;;;;;;6.53;5.50;;;8.40;99.90;;;;;;4990544;28;20609;-88
2022/04/30 02:55:29;;;;;;;6.10;5.07;;;8.40;99.90;;;;;;4991685;28;20874;-84
2022/04/30 03:00:43;;;;;;;9.40;5.33;;;8.50;99.90;;;;;;4990772;28;20199;-83
2022/04/30 03:03:12;;;;;;;12.77;5.60;;;8.50;99.90;;;;;;4990359;28;20227;-88
2022/04/30 03:05:40;;;;;;;9.80;5.20;;;8.40;99.90;;;;;;4989887;28;20294;-86
2022/04/30 03:08:11;;;;;;;7.63;5.00;;;8.50;99.90;;;;;;4990486;28;20401;-85
2022/04/30 03:10:38;;;;;;;8.47;4.97;;;8.50;99.90;;;;;;4994629;28;20250;-85
2022/04/30 03:13:05;;;;;;;8.60;5.10;;;8.50;99.90;;;;;;4994270;28;20247;-83
2022/04/30 03:15:33;;;;;;;5.53;4.80;;;8.50;99.90;;;;;;4994952;28;20204;-87
2022/04/30 03:23:47;;;;;;;6.23;4.80;;;8.50;99.90;;;;;;4954638;28;20296;-82
2022/04/30 03:26:15;;;;;;;6.33;4.50;;;8.50;99.90;;;;;;4977458;28;20917;-86
2022/04/30 03:28:43;;;;;;;6.90;4.57;;;8.50;99.90;;;;;;4994591;28;20214;-84
2022/04/30 03:31:11;;;;;;;5.87;4.03;;;8.50;99.90;;;;;;4993413;28;20246;-88
2022/04/30 03:33:39;;;;;;;7.63;4.93;;;8.50;99.90;;;;;;4994052;28;20203;-84
2022/04/30 03:36:10;;;;;;;4.97;4.47;;;8.50;99.90;;;;;;4994094;28;20211;-82
2022/04/30 03:38:36;;;;;;;5.97;4.50;;;8.50;99.90;;;;;;4993799;28;20208;-83
2022/04/30 03:41:05;;;;;;;7.50;4.23;;;8.50;99.90;;;;;;4993802;28;20216;-87
2022/04/30 03:43:32;;;;;;;6.70;4.67;;;8.60;99.90;;;;;;4993713;28;20515;-82
2022/04/30 03:45:59;;;;;;;5.20;4.70;;;8.50;99.90;;;;;;4992660;28;20550;-84
2022/04/30 03:48:26;;;;;;;5.33;3.80;;;8.50;99.90;;;;;;4993386;28;20226;-86
2022/04/30 03:50:53;;;;;;;5.33;3.60;;;8.50;99.90;;;;;;4995135;28;20648;-88
2022/04/30 03:53:21;;;;;;;10.33;5.33;;;8.50;99.90;;;;;;4995401;28;20208;-88
2022/04/30 03:55:48;;;;;;;6.37;4.47;;;8.50;99.90;;;;;;4995130;28;20604;-86
2022/04/30 03:58:15;;;;;;;6.50;4.70;;;8.50;99.90;;;;;;5005937;28;20303;-87
2022/04/30 04:00:43;;;;;;;5.10;4.60;;;8.50;99.90;;;;;;5015624;28;20203;-87
2022/04/30 04:03:11;;;;;;;5.33;4.83;;;8.40;99.90;;;;;;5011576;28;20223;-84
2022/04/30 04:05:38;;;;;;;5.90;4.47;;;8.40;99.90;;;;;;5012052;28;20215;-84
2022/04/30 04:08:10;;;;;;;5.47;3.90;;;8.50;99.90;;;;;;5009442;28;20277;-83
2022/04/30 04:10:39;;;;;;;5.37;4.03;;;8.40;99.90;;;;;;4993888;28;20215;-87
2022/04/30 04:18:30;;;;;;;6.67;3.70;;;8.50;99.90;;;;;;5011753;28;20657;-85
2022/04/30 04:20:57;;;;;;;9.30;4.73;;;8.50;99.90;;;;;;5011103;28;20744;-83
2022/04/30 04:23:24;;;;;;;5.43;4.50;;;8.50;99.90;;;;;;5014305;28;20522;-82
2022/04/30 04:26:00;;;;;;;4.77;4.00;;;8.50;99.90;;;;;;5014610;28;20214;-82
2022/04/30 04:28:27;;;;;;;8.17;5.07;;;8.50;99.90;;;;;;5014242;28;20223;-87
2022/04/30 04:30:54;;;;;;;8.80;4.83;;;8.50;99.90;;;;;;5012950;28;20203;-84
2022/04/30 04:33:21;;;;;;;6.87;4.30;;;8.60;99.90;;;;;;5010934;28;20203;-83
2022/04/30 04:35:48;;;;;;;4.63;4.23;;;8.60;99.90;;;;;;5009656;28;20501;-87
2022/04/30 04:38:15;;;;;;;4.23;3.83;;;8.60;99.90;;;;;;5009759;28;20535;-83
2022/04/30 04:40:41;;;;;;;4.00;3.60;;;8.60;99.90;;;;;;5010180;28;20203;-86
2022/04/30 04:43:10;;;;;;;4.33;3.90;;;8.60;99.90;;;;;;5009573;28;20206;-86
2022/04/30 04:45:36;;;;;;;4.40;3.97;;;8.60;99.90;;;;;;5010592;28;20208;-85
2022/04/30 04:48:05;;;;;;;5.67;4.60;;;8.60;99.90;;;;;;5011080;28;20223;-87
2022/04/30 04:50:31;;;;;;;4.83;3.73;;;8.50;99.90;;;;;;5011165;28;20191;-88
2022/04/30 04:52:58;;;;;;;4.67;3.60;;;8.50;99.90;;;;;;5011120;28;20211;-82
2022/04/30 04:55:25;;;;;;;5.63;4.00;;;8.50;99.90;;;;;;5011459;28;20203;-82
2022/04/30 04:57:52;;;;;;;6.03;5.03;;;8.50;99.90;;;;;;5027586;28;20230;-85
2022/04/30 05:00:21;;;;;;;5.97;4.80;;;8.50;99.90;;;;;;5031447;28;20556;-84
2022/04/30 05:02:48;;;;;;;5.60;4.97;;;8.50;99.90;;;;;;5029051;28;20207;-84
2022/04/30 05:05:15;;;;;;;7.57;6.33;;;8.60;99.90;;;;;;5010953;28;20199;-84
2022/04/30 05:07:44;;;;;;;8.53;5.83;;;8.60;99.90;;;;;;5011271;28;20250;-85
2022/04/30 05:10:11;;;;;;;7.93;5.73;;;8.70;99.90;;;;;;5011368;28;20234;-84
2022/04/30 05:12:38;;;;;;;6.20;5.60;;;8.80;99.90;;;;;;5012020;28;20565;-81
2022/04/30 05:15:05;;;;;;;8.83;6.37;;;8.90;99.90;;;;;;5010777;28;20327;-82
2022/04/30 05:17:34;;;;;;;7.30;5.80;;;8.90;99.90;;;;;;5010752;28;20199;-82
2022/04/30 05:20:01;;;;;;;9.93;6.10;;;9.00;99.90;;;;;;5011053;28;20250;-86
2022/04/30 05:22:28;;;;;;;7.70;5.47;;;9.00;99.90;;;;;;5011287;28;20211;-84
2022/04/30 05:24:54;;;;;;;9.87;5.60;;;9.00;99.90;;;;;;5010754;28;20216;-83
2022/04/30 05:27:21;;;;;;;7.03;5.00;;;9.00;99.90;;;;;;5010370;28;20234;-82
2022/04/30 05:29:48;;;;;;;7.97;4.70;;;9.10;99.90;;;;;;5010157;28;20207;-82
2022/04/30 05:32:15;;;;;;;8.00;4.63;;;9.10;99.90;;;;;;5009468;28;20905;-83
2022/04/30 05:34:43;;;;;;;6.80;4.57;;;9.10;99.90;;;;;;5008403;28;20211;-84
2022/04/30 05:37:10;;;;;;;8.53;5.10;;;9.20;99.90;;;;;;5009385;28;20222;-85
2022/04/30 05:39:37;;;;;;;4.77;4.17;;;9.20;99.90;;;;;;5010196;28;20611;-83
2022/04/30 05:42:04;;;;;;;5.27;3.77;;;9.20;99.90;;;;;;5010714;28;20205;-85
2022/04/30 05:44:31;;;;;;;4.87;4.17;;;9.20;99.90;;;;;;5010575;28;20234;-83
2022/04/30 05:46:58;;;;;;;8.17;4.53;;;9.30;99.90;;;;;;5010100;28;20219;-84
2022/04/30 05:49:25;;;;;;;4.63;3.93;;;9.30;99.90;;;;;;5010593;28;20557;-83
2022/04/30 05:51:53;;;;;;;9.07;4.10;;;9.30;99.90;;;;;;5010616;28;20207;-87
2022/04/30 05:54:20;;;;;;;5.83;4.30;;;9.40;99.90;;;;;;5011623;28;20206;-85
2022/04/30 05:56:47;;;;;;;5.57;4.27;;;9.40;99.90;;;;;;5012907;28;20266;-87
2022/04/30 05:59:14;;;;;;;6.03;3.83;;;9.50;99.90;;;;;;5029386;28;20213;-86
2022/04/30 06:01:41;;;;;;;3.87;3.47;;;9.50;99.90;;;;;;5026045;28;20203;-85
2022/04/30 06:04:08;;;;;;;4.80;4.00;;;9.60;99.90;;;;;;5010243;28;20219;-85
2022/04/30 06:06:34;;;;;;;5.57;3.90;;;9.70;99.90;;;;;;5010773;28;20207;-85
2022/04/30 06:09:03;;;;;;;6.17;4.40;;;9.70;99.90;;;;;;5022917;23;20238;-84
2022/04/30 06:11:29;;;;;;;5.10;4.00;;;9.80;99.90;;;;;;5031013;28;20206;-86
2022/04/30 06:13:56;;;;;;;8.13;4.30;;;9.80;99.90;;;;;;5029217;28;20210;-83
2022/04/30 06:16:23;;;;;;;3.93;3.53;;;9.90;99.90;;;;;;5030142;28;20666;-84
2022/04/30 06:18:50;;;;;;;4.97;3.83;;;10.00;99.90;;;;;;5020079;28;20207;-83
2022/04/30 06:21:17;;;;;;;5.90;4.13;;;10.00;99.90;;;;;;5010167;28;20592;-86
2022/04/30 06:23:43;;;;;;;6.60;4.50;;;10.10;99.90;;;;;;5016141;28;20495;-89
2022/04/30 06:26:12;;;;;;;6.83;4.87;;;10.30;99.90;;;;;;5030650;28;20194;-84
2022/04/30 06:28:39;;;;;;;6.00;4.17;;;10.80;99.90;;;;;;5027250;28;20237;-83
2022/04/30 06:31:06;;;;;;;5.53;4.43;;;11.20;99.90;;;;;;5011285;28;20362;-87
2022/04/30 06:33:33;;;;;;;4.60;3.87;;;11.70;99.90;;;;;;5011919;28;20203;-86
2022/04/30 06:36:00;;;;;;;6.30;3.93;;;12.10;99.90;;;;;;5009228;28;20693;-81
2022/04/30 06:38:27;;;;;;;6.20;4.20;;;12.50;99.90;;;;;;5009678;28;20250;-83
2022/04/30 06:40:53;;;;;;;6.80;4.33;;;12.80;99.90;;;;;;5010261;28;20265;-84
2022/04/30 06:43:24;;;;;;;4.33;3.10;;;13.20;99.90;;;;;;5009614;28;20207;-85
2022/04/30 06:45:51;;;;;;;4.27;3.20;;;13.40;99.90;;;;;;5010547;28;20214;-85
2022/04/30 06:48:18;;;;;;;3.57;2.90;;;13.30;99.90;;;;;;5010233;28;20254;-88
2022/04/30 06:50:45;;;;;;;7.97;3.80;;;13.10;99.90;;;;;;5010421;28;20558;-87
2022/04/30 06:58:50;;;;;;;6.53;3.07;;;13.60;99.90;;;;;;5027873;28;20181;-88
2022/04/30 07:01:30;;;;;;;4.50;2.63;;;13.60;99.90;;;;;;5010565;28;20740;-83
2022/04/30 07:04:04;;;;;;;4.50;2.97;;;13.60;99.90;;;;;;5010005;28;20231;-89
2022/04/30 07:06:31;;;;;;;3.47;2.53;;;13.40;99.90;;;;;;5008084;28;20210;-87
2022/04/30 07:08:57;;;;;;;3.33;2.47;;;13.30;99.90;;;;;;4989384;28;20231;-85
2022/04/30 07:11:25;;;;;;;9.20;3.80;;;13.10;99.90;;;;;;5010958;28;20195;-84
2022/04/30 07:13:54;;;;;;;3.97;2.33;;;13.00;99.90;;;;;;5011186;28;20611;-88
2022/04/30 07:16:21;;;;;;;3.63;2.73;;;12.90;99.90;;;;;;5010286;28;20603;-87
2022/04/30 07:18:48;;;;;;;2.87;2.53;;;12.70;99.90;;;;;;5010429;28;20290;-89
2022/04/30 07:21:15;;;;;;;6.10;2.73;;;12.50;99.90;;;;;;5009886;28;20222;-85
2022/04/30 07:23:41;;;;;;;4.67;3.13;;;12.30;99.90;;;;;;5007260;28;20214;-86
2022/04/30 07:26:11;;;;;;;4.30;3.00;;;12.20;99.90;;;;;;5027467;28;20206;-86
2022/04/30 07:28:38;;;;;;;5.83;3.97;;;12.10;99.90;;;;;;5030842;28;20273;-82
2022/04/30 07:31:08;;;;;;;4.93;2.80;;;12.00;99.90;;;;;;5010588;28;20229;-86
2022/04/30 07:33:35;;;;;;;5.20;3.03;;;11.90;99.90;;;;;;5009915;28;20235;-85
2022/04/30 07:36:03;;;;;;;5.93;3.37;;;11.80;99.90;;;;;;5026364;28;20206;-88
2022/04/30 07:38:30;;;;;;;3.47;3.10;;;11.90;99.90;;;;;;5029921;28;20205;-84
2022/04/30 07:40:57;;;;;;;6.53;3.43;;;11.90;99.90;;;;;;5028725;28;20195;-82
2022/04/30 07:43:24;;;;;;;4.13;3.33;;;11.90;99.90;;;;;;5009202;28;20211;-83
2022/04/30 07:45:50;;;;;;;5.70;3.60;;;11.90;99.90;;;;;;5009752;28;20195;-86
2022/04/30 07:48:20;;;;;;;5.33;3.33;;;11.90;99.90;;;;;;5010121;28;20518;-85
2022/04/30 07:50:47;;;;;;;4.93;3.43;;;12.00;99.90;;;;;;5010062;28;20200;-84
2022/04/30 07:53:15;;;;;;;5.60;3.20;;;11.90;99.90;;;;;;5009450;28;20187;-85
2022/04/30 07:55:42;;;;;;;4.90;3.23;;;12.00;99.90;;;;;;5009098;28;20219;-85
2022/04/30 07:58:09;;;;;;;6.77;3.40;;;12.00;99.90;;;;;;5012300;28;20210;-81
2022/04/30 08:00:37;;;;;;;5.53;3.70;;;12.20;99.90;;;;;;5013472;28;20207;-84
2022/04/30 08:03:04;;;;;;;5.33;3.30;;;12.20;99.90;;;;;;5012071;28;20227;-85
2022/04/30 08:05:32;;;;;;;6.10;3.90;;;12.10;99.90;;;;;;5011703;28;20238;-85
2022/04/30 08:07:59;;;;;;;3.47;3.13;;;12.60;99.90;;;;;;5012629;28;20234;-83
2022/04/30 08:10:27;;;;;;;6.13;2.57;;;13.20;99.90;;;;;;5011921;28;20235;-85
2022/04/30 08:12:57;;;;;;;6.60;3.03;;;13.30;99.90;;;;;;5009706;28;20199;-84
2022/04/30 08:15:25;;;;;;;3.80;2.77;;;13.20;99.90;;;;;;5012492;28;20203;-85
2022/04/30 08:17:53;;;;;;;5.80;2.93;;;13.00;99.90;;;;;;5012692;28;20286;-84
2022/04/30 08:20:20;;;;;;;4.70;2.77;;;13.00;99.90;;;;;;5011821;28;20199;-82
2022/04/30 08:22:48;;;;;;;6.00;2.40;;;12.90;99.90;;;;;;5012544;28;20218;-83
2022/04/30 08:25:15;;;;;;;4.27;2.30;;;12.90;99.90;;;;;;5012228;28;20594;-85
2022/04/30 08:27:42;;;;;;;6.07;3.10;;;13.00;99.90;;;;;;5012718;28;20195;-86
2022/04/30 08:30:11;;;;;;;3.03;2.00;;;13.30;99.90;;;;;;5011956;28;20216;-85
2022/04/30 08:32:38;;;;;;;7.47;2.23;;;13.40;99.90;;;;;;5012136;28;20222;-83
2022/04/30 08:35:05;;;;;;;5.30;1.97;;;13.20;99.90;;;;;;5009955;28;20204;-85
2022/04/30 08:37:32;;;;;;;3.20;1.83;;;13.20;99.90;;;;;;5011452;28;20195;-84
2022/04/30 08:40:00;;;;;;;2.73;1.70;;;12.90;99.90;;;;;;5009938;28;20253;-85
2022/04/30 08:42:28;;;;;;;2.73;1.70;;;12.90;99.90;;;;;;5009834;28;20217;-86
2022/04/30 08:44:56;;;;;;;5.73;2.30;;;12.70;99.90;;;;;;5012542;28;20227;-87
2022/04/30 08:47:23;;;;;;;5.50;1.83;;;12.60;99.90;;;;;;5012582;28;20543;-84
2022/04/30 08:49:50;;;;;;;5.10;2.10;;;12.50;99.90;;;;;;5012281;28;20730;-87
2022/04/30 08:52:17;;;;;;;3.27;1.93;;;12.60;99.90;;;;;;5012042;28;20261;-85
2022/04/30 08:54:44;;;;;;;4.33;1.80;;;12.70;99.90;;;;;;5011844;28;20215;-85
2022/04/30 08:57:14;;;;;;;3.90;2.27;;;12.70;99.90;;;;;;5009309;28;20199;-85
2022/04/30 08:59:41;;;;;;;5.03;2.20;;;12.80;99.90;;;;;;5010561;28;20222;-85
2022/04/30 09:02:10;;;;;;;5.60;2.40;;;12.90;99.90;;;;;;5009509;28;20222;-85
2022/04/30 09:04:45;;;;;;;4.40;2.47;;;12.80;99.90;;;;;;5010376;28;20235;-86
2022/04/30 09:07:17;;;;;;;6.83;2.30;;;12.90;99.90;;;;;;5009814;28;20242;-88
2022/04/30 09:09:44;;;;;;;5.63;2.40;;;13.00;99.90;;;;;;5010331;28;20241;-89
2022/04/30 09:12:14;;;;;;;6.20;2.33;;;12.80;99.90;;;;;;5012469;28;20252;-85
2022/04/30 09:14:42;;;;;;;3.63;1.90;;;12.40;99.90;;;;;;5012403;28;20208;-84
2022/04/30 09:17:10;;;;;;;5.13;2.30;;;12.50;99.90;;;;;;5012385;28;20211;-86
2022/04/30 09:19:48;;;;;;;3.20;2.17;;;12.70;99.90;;;;;;5012077;28;20686;-89
2022/04/30 09:22:16;;;;;;;4.23;2.00;;;12.80;99.90;;;;;;5011751;28;20207;-87
2022/04/30 09:24:48;;;;;;;5.80;3.00;;;13.10;99.90;;;;;;5012717;28;20211;-90
2022/04/30 09:27:16;;;;;;;3.60;1.93;;;13.20;99.90;;;;;;5010319;28;20233;-84
2022/04/30 09:29:43;;;;;;;2.77;1.47;;;13.20;99.90;;;;;;5011156;28;20255;-89
2022/04/30 09:32:17;;;;;;;1.90;1.70;;;13.40;99.90;;;;;;5016284;28;20218;-85
2022/04/30 09:37:42;;;;;;;2.27;1.57;;;13.80;99.90;;;;;;5025053;28;20202;-84
2022/04/30 09:40:23;;;;;;;2.70;1.40;;;13.90;99.90;;;;;;5027309;28;20199;-91
2022/04/30 09:42:51;;;;;;;3.63;1.50;;;14.20;99.90;;;;;;5024696;28;20202;-90
2022/04/30 09:45:26;;;;;;;2.07;1.30;;;13.90;99.90;;;;;;5011352;28;20491;-86
2022/04/30 09:47:54;;;;;;;2.67;1.47;;;13.80;99.90;;;;;;5010519;28;20203;-86
2022/04/30 09:55:54;;;;;;;4.30;1.60;;;14.20;99.90;;;;;;5032692;28;20348;-85
2022/04/30 09:58:25;;;;;;;1.90;1.20;;;14.10;99.90;;;;;;5028752;28;20194;-86
2022/04/30 10:00:56;;;;;;;2.53;1.23;;;14.10;99.90;;;;;;5011510;28;20896;-86
2022/04/30 10:03:26;;;;;;;3.80;1.33;;;14.10;99.90;;;;;;5012494;28;20627;-87
2022/04/30 10:06:02;;;;;;;1.43;1.20;;;14.10;99.90;;;;;;5012411;28;20261;-87
2022/04/30 10:08:30;;;;;;;2.07;1.10;;;14.30;99.90;;;;;;5010270;28;20230;-86
2022/04/30 10:11:10;;;;;;;1.77;1.03;;;14.60;99.90;;;;;;5018657;28;20209;-87
2022/04/30 10:13:50;;;;;;;3.27;1.30;;;14.60;99.90;;;;;;5009951;28;20191;-86
2022/04/30 10:16:24;;;;;;;4.67;1.73;;;14.60;99.90;;;;;;5011727;28;20199;-87
2022/04/30 10:19:11;;;;;;;3.90;1.80;;;14.60;99.90;;;;;;5011950;28;20203;-89
2022/04/30 10:21:39;;;;;;;3.57;1.80;;;14.50;99.90;;;;;;5011685;28;20230;-86
2022/04/30 10:24:07;;;;;;;5.20;1.83;;;14.80;99.90;;;;;;5010509;28;20207;-88
2022/04/30 10:26:35;;;;;;;3.57;1.80;;;15.10;99.90;;;;;;5008891;28;20701;-87
2022/04/30 10:29:11;;;;;;;4.80;1.87;;;15.10;99.90;;;;;;5008369;28;20227;-88
2022/04/30 10:31:43;;;;;;;8.57;1.90;;;15.10;99.90;;;;;;5012866;28;20435;-89
2022/04/30 10:34:10;;;;;;;3.93;1.73;;;15.20;99.90;;;;;;5013152;28;20195;-82
2022/04/30 10:36:39;;;;;;;4.67;1.90;;;15.00;99.90;;;;;;5013242;28;20861;-87
2022/04/30 10:39:09;;;;;;;4.17;1.87;;;15.30;99.90;;;;;;5013552;28;20251;-88
2022/04/30 10:41:42;;;;;;;4.77;1.80;;;15.50;99.90;;;;;;5012843;28;20211;-91
2022/04/30 10:44:12;;;;;;;2.37;1.33;;;15.70;99.90;;;;;;5029751;28;20242;-90
2022/04/30 10:46:42;;;;;;;3.53;1.47;;;15.70;99.90;;;;;;5032197;28;20291;-86
2022/04/30 10:49:10;;;;;;;2.83;1.40;;;15.90;99.90;;;;;;5030772;28;20226;-88
2022/04/30 10:51:41;;;;;;;2.87;1.47;;;15.90;99.90;;;;;;5030670;28;20513;-84
2022/04/30 10:54:10;;;;;;;2.57;1.30;;;15.70;99.90;;;;;;5016348;28;20207;-86
2022/04/30 10:56:39;;;;;;;2.77;1.37;;;15.70;99.90;;;;;;5011237;28;20588;-85
2022/04/30 10:59:06;;;;;;;4.20;1.60;;;15.60;99.90;;;;;;5011049;28;20278;-88
2022/04/30 11:01:35;;;;;;;2.53;1.30;;;15.80;99.90;;;;;;5008626;28;20290;-88
2022/04/30 11:04:02;;;;;;;2.27;1.30;;;15.90;99.90;;;;;;5009950;28;20258;-88
2022/04/30 11:06:32;;;;;;;3.00;1.47;;;16.10;99.90;;;;;;5010660;28;20681;-87
2022/04/30 11:09:00;;;;;;;3.97;1.50;;;16.00;99.90;;;;;;5010304;28;20243;-88
2022/04/30 11:11:27;;;;;;;2.30;1.43;;;15.80;99.90;;;;;;5011520;28;20519;-88
2022/04/30 11:14:00;;;;;;;2.30;1.20;;;15.40;99.90;;;;;;5020327;28;20851;-88
2022/04/30 11:16:32;;;;;;;3.63;1.30;;;15.20;99.90;;;;;;5010621;28;20203;-87
2022/04/30 11:19:10;;;;;;;2.97;1.50;;;15.00;99.90;;;;;;5010480;28;20639;-86
2022/04/30 11:21:39;;;;;;;4.10;1.30;;;14.90;99.90;;;;;;5011020;28;20570;-87
2022/04/30 11:24:09;;;;;;;5.00;1.80;;;14.70;99.90;;;;;;5011217;28;20203;-88
2022/04/30 11:26:40;;;;;;;2.03;1.30;;;14.70;99.90;;;;;;5010675;28;20222;-88
2022/04/30 11:29:10;;;;;;;3.83;1.80;;;14.90;99.90;;;;;;5011113;28;20591;-86
2022/04/30 11:31:38;;;;;;;4.80;1.80;;;14.90;99.90;;;;;;5015129;28;20207;-88
2022/04/30 11:34:10;;;;;;;2.10;1.37;;;14.90;99.90;;;;;;5014950;28;20859;-88
2022/04/30 11:36:42;;;;;;;3.90;1.87;;;15.10;99.90;;;;;;5022673;28;20592;-87
2022/04/30 11:39:10;;;;;;;3.93;1.50;;;15.00;99.90;;;;;;5013450;28;20294;-86
2022/04/30 11:41:40;;;;;;;2.17;1.47;;;15.00;99.90;;;;;;5013356;28;20290;-91
2022/04/30 11:44:10;;;;;;;5.00;1.93;;;15.20;99.90;;;;;;5014156;28;20569;-88
2022/04/30 11:49:10;;;;;;;4.10;1.67;;;15.20;99.90;;;;;;5304539;23;20242;-86
2022/04/30 11:51:38;;;;;;;2.43;1.30;;;15.00;99.90;;;;;;5030535;28;20213;-84
2022/04/30 11:54:07;;;;;;;5.27;2.30;;;14.90;99.90;;;;;;5032804;28;20218;-84
2022/04/30 11:56:35;;;;;;;3.80;1.60;;;14.80;99.90;;;;;;5033182;28;20435;-85
2022/04/30 11:59:02;;;;;;;2.37;1.60;;;14.80;99.90;;;;;;5014108;28;20211;-87
2022/04/30 12:01:32;;;;;;;3.93;2.00;;;14.80;99.90;;;;;;5014024;28;20207;-90
2022/04/30 12:04:01;;;;;;;2.83;1.90;;;14.90;99.90;;;;;;5013630;28;20230;-85
2022/04/30 12:06:30;;;;;;;3.13;2.10;;;14.80;99.90;;;;;;5013073;28;20282;-87
2022/04/30 12:08:57;;;;;;;4.87;2.30;;;14.80;99.90;;;;;;5011493;28;20234;-84
2022/04/30 12:11:24;;;;;;;5.10;2.00;;;14.80;99.90;;;;;;5012533;28;20526;-87
2022/04/30 12:14:01;;;;;;;5.17;2.10;;;14.90;99.90;;;;;;5008297;28;20211;-82
2022/04/30 12:16:36;;;;;;;3.13;1.70;;;15.00;99.90;;;;;;4991473;28;20214;-87
2022/04/30 12:24:42;;;;;;;4.37;1.67;;;14.50;99.90;;;;;;4993088;28;20246;-86
2022/04/30 12:27:09;;;;;;;3.30;2.03;;;14.60;99.90;;;;;;4992373;28;20534;-86
2022/04/30 12:29:37;;;;;;;3.93;1.47;;;14.70;99.90;;;;;;4992712;28;20294;-84
2022/04/30 12:32:05;;;;;;;2.23;1.60;;;14.90;99.90;;;;;;4993580;28;20314;-87
2022/04/30 12:34:38;;;;;;;2.37;1.70;;;15.20;99.90;;;;;;4992424;28;20215;-85
2022/04/30 12:37:07;;;;;;;3.67;2.20;;;15.60;99.90;;;;;;5008747;28;20215;-83
2022/04/30 12:39:35;;;;;;;3.33;1.70;;;15.90;99.90;;;;;;5010598;28;20233;-82
2022/04/30 12:42:02;;;;;;;2.80;1.60;;;16.20;99.90;;;;;;4996553;28;20588;-84
2022/04/30 12:44:30;;;;;;;3.33;1.90;;;16.40;99.90;;;;;;4992054;28;20203;-87
2022/04/30 12:46:57;;;;;;;2.15;1.80;;;16.20;99.90;;;;;;5000121;28;20222;-84
2022/04/30 12:49:24;;;;;;;3.50;2.00;;;16.50;99.90;;;;;;5001379;28;20240;-87
2022/04/30 12:51:51;;;;;;;3.08;2.00;;;16.50;99.90;;;;;;4994624;28;20504;-86
2022/04/30 12:54:19;;;;;;;3.58;2.20;;;16.70;99.90;;;;;;4992795;28;20235;-87
2022/04/30 12:56:48;;;;;;;1.80;1.50;;;16.60;99.90;;;;;;4993675;28;20306;-84
2022/04/30 12:59:16;;;;;;;3.10;1.80;;;16.80;99.90;;;;;;5010054;28;20690;-89
2022/04/30 13:01:43;;;;;;;2.42;1.77;;;16.80;99.90;;;;;;5012087;28;20294;-88
2022/04/30 13:04:12;;;;;;;3.77;2.07;;;16.70;99.90;;;;;;5011818;28;20235;-87
2022/04/30 13:06:39;;;;;;;2.60;1.80;;;16.70;99.90;;;;;;5012695;28;20210;-89
2022/04/30 13:14:39;;;;;;;3.03;2.70;;;16.50;99.90;;;;;;4977122;28;20219;-85
2022/04/30 13:17:06;;;;;;;3.40;2.42;;;16.40;99.90;;;;;;4997748;28;20211;-91
2022/04/30 13:19:33;;;;;;;4.90;2.58;;;16.50;99.90;;;;;;5010725;28;20191;-88
2022/04/30 13:22:01;;;;;;;5.13;2.38;;;16.30;99.90;;;;;;5009632;28;20203;-83
2022/04/30 13:24:29;;;;;;;2.30;1.77;;;16.30;99.90;;;;;;5011937;28;20207;-86
2022/04/30 13:26:58;;;;;;;4.20;2.63;;;16.20;99.90;;;;;;5011442;28;20221;-85
2022/04/30 13:29:25;;;;;;;4.57;2.15;;;16.30;99.90;;;;;;5010099;28;20311;-85
2022/04/30 13:31:52;;;;;;;4.55;2.50;;;16.40;99.90;;;;;;5026076;23;20674;-83
2022/04/30 13:34:21;;;;;;;3.55;1.90;;;16.40;99.90;;;;;;5005723;28;20212;-88
2022/04/30 13:36:48;;;;;;;3.63;2.47;;;16.20;99.90;;;;;;5002479;28;20219;-86
2022/04/30 13:39:15;;;;;;;3.15;2.47;;;16.00;99.90;;;;;;5011801;28;20195;-84
2022/04/30 13:41:42;;;;;;;3.67;2.08;;;16.10;99.90;;;;;;5010907;28;20227;-84
2022/04/30 13:44:11;;;;;;;3.90;2.60;;;16.30;99.90;;;;;;5004160;28;20575;-84